createdAt,value
2022-12-15T00:00:55.006Z,982.69
2022-12-15T00:01:54.981Z,982.65
2022-12-15T00:02:55.091Z,982.57
2022-12-15T00:03:54.948Z,982.63
2022-12-15T00:04:54.921Z,982.60
2022-12-15T00:05:54.880Z,982.55
2022-12-15T00:06:54.931Z,982.65
2022-12-15T00:07:54.887Z,982.64
2022-12-15T00:08:54.914Z,982.66
2022-12-15T00:09:54.936Z,982.68
2022-12-15T00:10:54.940Z,982.68
2022-12-15T00:11:54.901Z,982.76
2022-12-15T00:12:54.851Z,982.73
2022-12-15T00:13:54.872Z,982.78
2022-12-15T00:14:54.842Z,982.77
2022-12-15T00:15:54.926Z,982.84
2022-12-15T00:16:54.803Z,982.84
2022-12-15T00:17:54.811Z,982.83
2022-12-15T00:18:54.815Z,982.83
2022-12-15T00:19:54.800Z,982.81
2022-12-15T00:20:54.823Z,982.78
2022-12-15T00:21:54.827Z,982.74
2022-12-15T00:22:54.803Z,982.72
2022-12-15T00:23:54.782Z,982.76
2022-12-15T00:24:54.788Z,982.74
2022-12-15T00:25:54.797Z,982.73
2022-12-15T00:26:54.814Z,982.72
2022-12-15T00:27:54.856Z,982.85
2022-12-15T00:28:54.813Z,982.86
2022-12-15T00:29:54.793Z,982.87
2022-12-15T00:31:00.450Z,982.83
2022-12-15T00:31:56.827Z,982.91
2022-12-15T00:32:54.735Z,982.90
2022-12-15T00:33:54.739Z,982.95
2022-12-15T00:34:54.731Z,982.92
2022-12-15T00:35:54.718Z,982.98
2022-12-15T00:36:54.717Z,982.98
2022-12-15T00:37:54.717Z,983.01
2022-12-15T00:38:58.066Z,982.97
2022-12-15T00:39:55.665Z,983.00
2022-12-15T00:40:54.660Z,983.00
2022-12-15T00:41:54.667Z,983.04
2022-12-15T00:42:54.676Z,983.05
2022-12-15T00:43:54.683Z,983.04
2022-12-15T00:44:54.713Z,983.08
2022-12-15T00:45:54.701Z,983.13
2022-12-15T00:46:54.861Z,983.08
2022-12-15T00:47:54.661Z,983.09
2022-12-15T00:48:54.710Z,983.11
2022-12-15T00:49:54.877Z,983.14
2022-12-15T00:50:54.681Z,983.09
2022-12-15T00:51:54.701Z,983.15
2022-12-15T00:52:54.681Z,983.15
2022-12-15T00:53:54.645Z,983.13
2022-12-15T00:54:54.676Z,983.11
2022-12-15T00:55:54.567Z,983.19
2022-12-15T00:56:54.661Z,983.19
2022-12-15T00:57:54.580Z,983.18
2022-12-15T00:58:54.853Z,983.22
2022-12-15T00:59:54.572Z,983.22
2022-12-15T01:00:55.532Z,983.18
2022-12-15T01:01:54.625Z,983.20
2022-12-15T01:02:54.756Z,983.22
2022-12-15T01:03:54.761Z,983.16
2022-12-15T01:04:54.564Z,983.14
2022-12-15T01:05:54.494Z,983.22
2022-12-15T01:06:54.583Z,983.22
2022-12-15T01:07:54.518Z,983.21
2022-12-15T01:08:54.492Z,983.28
2022-12-15T01:09:54.490Z,983.22
2022-12-15T01:10:54.516Z,983.28
2022-12-15T01:11:54.489Z,983.28
2022-12-15T01:12:54.466Z,983.30
2022-12-15T01:13:54.505Z,983.31
2022-12-15T01:14:54.451Z,983.33
2022-12-15T01:15:54.510Z,983.36
2022-12-15T01:16:54.439Z,983.40
2022-12-15T01:17:54.481Z,983.48
2022-12-15T01:18:54.426Z,983.47
2022-12-15T01:19:54.434Z,983.47
2022-12-15T01:20:54.450Z,983.46
2022-12-15T01:21:54.434Z,983.45
2022-12-15T01:22:54.424Z,983.45
2022-12-15T01:23:54.416Z,983.47
2022-12-15T01:24:54.397Z,983.47
2022-12-15T01:25:54.420Z,983.43
2022-12-15T01:26:54.370Z,983.44
2022-12-15T01:27:54.378Z,983.44
2022-12-15T01:28:54.416Z,983.44
2022-12-15T01:29:54.380Z,983.44
2022-12-15T01:30:54.360Z,983.50
2022-12-15T01:31:54.411Z,983.52
2022-12-15T01:32:54.365Z,983.51
2022-12-15T01:33:54.347Z,983.50
2022-12-15T01:34:54.318Z,983.48
2022-12-15T01:35:54.317Z,983.53
2022-12-15T01:36:54.326Z,983.59
2022-12-15T01:37:54.337Z,983.57
2022-12-15T01:38:54.737Z,983.60
2022-12-15T01:39:55.292Z,983.62
2022-12-15T01:40:54.286Z,983.65
2022-12-15T01:41:54.301Z,983.63
2022-12-15T01:42:54.269Z,983.63
2022-12-15T01:43:54.315Z,983.56
2022-12-15T01:44:54.299Z,983.56
2022-12-15T01:45:54.266Z,983.54
2022-12-15T01:46:54.306Z,983.56
2022-12-15T01:47:54.301Z,983.58
2022-12-15T01:48:54.219Z,983.59
2022-12-15T01:49:54.270Z,983.58
2022-12-15T01:50:54.198Z,983.56
2022-12-15T01:51:54.229Z,983.59
2022-12-15T01:52:54.231Z,983.56
2022-12-15T01:53:54.221Z,983.61
2022-12-15T01:54:54.256Z,983.58
2022-12-15T01:55:54.211Z,983.60
2022-12-15T01:56:54.252Z,983.59
2022-12-15T01:57:54.163Z,983.61
2022-12-15T01:58:54.215Z,983.60
2022-12-15T01:59:54.155Z,983.55
2022-12-15T02:00:54.202Z,983.57
2022-12-15T02:01:54.264Z,983.58
2022-12-15T02:02:54.296Z,983.65
2022-12-15T02:03:54.141Z,983.60
2022-12-15T02:04:54.117Z,983.66
2022-12-15T02:05:54.128Z,983.73
2022-12-15T02:06:54.165Z,983.68
2022-12-15T02:07:54.146Z,983.78
2022-12-15T02:08:54.103Z,983.77
2022-12-15T02:09:54.078Z,983.79
2022-12-15T02:10:54.098Z,983.78
2022-12-15T02:11:54.119Z,983.84
2022-12-15T02:12:54.160Z,983.81
2022-12-15T02:13:55.154Z,983.81
2022-12-15T02:14:54.443Z,983.81
2022-12-15T02:15:54.106Z,983.73
2022-12-15T02:16:54.049Z,983.85
2022-12-15T02:17:54.312Z,983.86
2022-12-15T02:18:54.026Z,983.88
2022-12-15T02:19:54.916Z,983.91
2022-12-15T02:20:55.019Z,983.94
2022-12-15T02:21:54.100Z,983.94
2022-12-15T02:22:54.010Z,983.84
2022-12-15T02:23:54.073Z,983.87
2022-12-15T02:24:54.095Z,983.93
2022-12-15T02:25:54.263Z,983.88
2022-12-15T02:26:53.983Z,983.99
2022-12-15T02:27:54.619Z,983.96
2022-12-15T02:28:53.954Z,983.97
2022-12-15T02:29:54.242Z,983.95
2022-12-15T02:30:53.925Z,983.96
2022-12-15T02:31:54.211Z,984.00
2022-12-15T02:32:54.003Z,983.94
2022-12-15T02:33:54.106Z,983.95
2022-12-15T02:34:53.940Z,983.95
2022-12-15T02:35:54.003Z,984.00
2022-12-15T02:36:54.179Z,983.99
2022-12-15T02:37:53.903Z,984.06
2022-12-15T02:38:54.202Z,984.02
2022-12-15T02:39:54.279Z,984.03
2022-12-15T02:40:53.931Z,984.07
2022-12-15T02:41:54.375Z,984.06
2022-12-15T02:42:53.868Z,984.05
2022-12-15T02:43:54.024Z,984.04
2022-12-15T02:44:54.096Z,984.02
2022-12-15T02:45:54.124Z,984.09
2022-12-15T02:46:53.839Z,984.11
2022-12-15T02:47:54.232Z,984.06
2022-12-15T02:48:53.829Z,984.08
2022-12-15T02:49:54.327Z,984.11
2022-12-15T02:50:53.798Z,984.18
2022-12-15T02:51:54.021Z,984.15
2022-12-15T02:52:53.829Z,984.18
2022-12-15T02:53:54.074Z,984.21
2022-12-15T02:54:53.835Z,984.26
2022-12-15T02:55:53.779Z,984.25
2022-12-15T02:56:53.771Z,984.31
2022-12-15T02:57:53.864Z,984.30
2022-12-15T02:58:53.774Z,984.33
2022-12-15T02:59:53.774Z,984.41
2022-12-15T03:00:53.823Z,984.37
2022-12-15T03:01:53.926Z,984.36
2022-12-15T03:02:53.914Z,984.35
2022-12-15T03:03:53.731Z,984.35
2022-12-15T03:04:53.742Z,984.37
2022-12-15T03:05:53.738Z,984.38
2022-12-15T03:06:59.020Z,984.39
2022-12-15T03:07:55.694Z,984.38
2022-12-15T03:08:53.685Z,984.39
2022-12-15T03:09:53.667Z,984.42
2022-12-15T03:10:53.712Z,984.39
2022-12-15T03:11:53.709Z,984.41
2022-12-15T03:12:53.874Z,984.31
2022-12-15T03:13:53.644Z,984.35
2022-12-15T03:14:53.649Z,984.30
2022-12-15T03:15:53.663Z,984.29
2022-12-15T03:16:53.729Z,984.27
2022-12-15T03:17:53.660Z,984.30
2022-12-15T03:18:53.625Z,984.27
2022-12-15T03:19:53.618Z,984.34
2022-12-15T03:20:53.664Z,984.32
2022-12-15T03:21:53.589Z,984.27
2022-12-15T03:22:53.640Z,984.28
2022-12-15T03:23:53.602Z,984.31
2022-12-15T03:24:53.627Z,984.33
2022-12-15T03:25:53.596Z,984.29
2022-12-15T03:26:53.573Z,984.27
2022-12-15T03:27:53.587Z,984.31
2022-12-15T03:28:53.580Z,984.33
2022-12-15T03:29:53.583Z,984.31
2022-12-15T03:30:53.560Z,984.37
2022-12-15T03:31:53.585Z,984.33
2022-12-15T03:32:53.505Z,984.34
2022-12-15T03:33:53.553Z,984.34
2022-12-15T03:34:53.507Z,984.34
2022-12-15T03:35:53.570Z,984.36
2022-12-15T03:36:53.493Z,984.41
2022-12-15T03:37:53.486Z,984.41
2022-12-15T03:38:53.482Z,984.45
2022-12-15T03:39:53.545Z,984.46
2022-12-15T03:40:53.486Z,984.44
2022-12-15T03:41:53.483Z,984.45
2022-12-15T03:42:53.460Z,984.43
2022-12-15T03:43:53.469Z,984.40
2022-12-15T03:44:53.502Z,984.41
2022-12-15T03:45:53.544Z,984.48
2022-12-15T03:46:54.590Z,984.38
2022-12-15T03:47:53.468Z,984.41
2022-12-15T03:48:53.425Z,984.42
2022-12-15T03:49:53.427Z,984.44
2022-12-15T03:50:53.434Z,984.45
2022-12-15T03:51:53.455Z,984.45
2022-12-15T03:52:53.452Z,984.46
2022-12-15T03:53:53.413Z,984.50
2022-12-15T03:54:53.394Z,984.59
2022-12-15T03:55:53.392Z,984.61
2022-12-15T03:56:53.382Z,984.56
2022-12-15T03:57:53.373Z,984.64
2022-12-15T03:58:53.414Z,984.67
2022-12-15T03:59:53.360Z,984.65
2022-12-15T04:00:53.414Z,984.64
2022-12-15T04:01:53.532Z,984.64
2022-12-15T04:02:53.520Z,984.66
2022-12-15T04:04:00.041Z,984.71
2022-12-15T04:04:55.353Z,984.68
2022-12-15T04:05:53.328Z,984.61
2022-12-15T04:06:53.313Z,984.65
2022-12-15T04:07:53.372Z,984.64
2022-12-15T04:08:53.298Z,984.66
2022-12-15T04:09:53.341Z,984.65
2022-12-15T04:10:53.300Z,984.67
2022-12-15T04:11:53.303Z,984.66
2022-12-15T04:12:53.307Z,984.64
2022-12-15T04:13:53.263Z,984.67
2022-12-15T04:14:53.255Z,984.71
2022-12-15T04:15:53.281Z,984.68
2022-12-15T04:16:53.340Z,984.67
2022-12-15T04:17:53.250Z,984.72
2022-12-15T04:18:53.251Z,984.71
2022-12-15T04:19:53.245Z,984.70
2022-12-15T04:20:53.283Z,984.71
2022-12-15T04:21:53.253Z,984.67
2022-12-15T04:22:53.237Z,984.77
2022-12-15T04:23:53.203Z,984.71
2022-12-15T04:24:53.209Z,984.59
2022-12-15T04:25:53.212Z,984.66
2022-12-15T04:26:53.193Z,984.68
2022-12-15T04:27:55.924Z,984.61
2022-12-15T04:28:55.175Z,984.62
2022-12-15T04:29:53.187Z,984.64
2022-12-15T04:30:53.191Z,984.70
2022-12-15T04:31:53.181Z,984.64
2022-12-15T04:32:53.150Z,984.64
2022-12-15T04:33:53.153Z,984.74
2022-12-15T04:34:53.121Z,984.69
2022-12-15T04:35:53.123Z,984.73
2022-12-15T04:36:53.149Z,984.75
2022-12-15T04:37:53.147Z,984.72
2022-12-15T04:38:53.112Z,984.73
2022-12-15T04:39:53.126Z,984.71
2022-12-15T04:40:53.106Z,984.73
2022-12-15T04:41:53.118Z,984.71
2022-12-15T04:42:53.086Z,984.72
2022-12-15T04:43:53.088Z,984.76
2022-12-15T04:44:53.055Z,984.75
2022-12-15T04:45:53.101Z,984.82
2022-12-15T04:46:53.060Z,984.86
2022-12-15T04:47:53.060Z,984.83
2022-12-15T04:48:53.049Z,984.88
2022-12-15T04:49:53.031Z,984.88
2022-12-15T04:50:53.033Z,984.84
2022-12-15T04:51:53.032Z,984.88
2022-12-15T04:52:53.006Z,984.89
2022-12-15T04:53:53.007Z,984.91
2022-12-15T04:54:52.993Z,984.94
2022-12-15T04:55:52.971Z,984.93
2022-12-15T04:56:52.971Z,984.95
2022-12-15T04:57:52.966Z,985.00
2022-12-15T04:58:52.994Z,984.99
2022-12-15T04:59:52.980Z,984.99
2022-12-15T05:00:52.973Z,984.98
2022-12-15T05:01:53.046Z,984.98
2022-12-15T05:02:52.972Z,984.90
2022-12-15T05:03:53.015Z,984.96
2022-12-15T05:04:52.974Z,984.94
2022-12-15T05:05:52.921Z,984.94
2022-12-15T05:06:52.960Z,984.95
2022-12-15T05:07:52.925Z,985.00
2022-12-15T05:08:52.900Z,985.00
2022-12-15T05:09:52.961Z,985.03
2022-12-15T05:10:52.896Z,985.11
2022-12-15T05:11:52.923Z,985.12
2022-12-15T05:12:52.867Z,985.08
2022-12-15T05:13:52.861Z,985.13
2022-12-15T05:14:52.889Z,985.16
2022-12-15T05:15:52.933Z,985.20
2022-12-15T05:16:52.933Z,985.18
2022-12-15T05:17:52.864Z,985.24
2022-12-15T05:18:52.831Z,985.27
2022-12-15T05:19:52.838Z,985.27
2022-12-15T05:20:52.870Z,985.29
2022-12-15T05:21:52.833Z,985.28
2022-12-15T05:22:52.814Z,985.27
2022-12-15T05:23:52.824Z,985.30
2022-12-15T05:24:52.812Z,985.30
2022-12-15T05:25:52.842Z,985.30
2022-12-15T05:26:53.480Z,985.31
2022-12-15T05:27:53.792Z,985.27
2022-12-15T05:28:52.786Z,985.35
2022-12-15T05:29:52.849Z,985.33
2022-12-15T05:30:52.814Z,985.31
2022-12-15T05:31:52.794Z,985.38
2022-12-15T05:32:52.771Z,985.38
2022-12-15T05:33:52.760Z,985.42
2022-12-15T05:34:52.770Z,985.44
2022-12-15T05:35:52.764Z,985.42
2022-12-15T05:36:52.734Z,985.40
2022-12-15T05:37:52.760Z,985.45
2022-12-15T05:38:52.895Z,985.41
2022-12-15T05:39:52.741Z,985.40
2022-12-15T05:40:52.741Z,985.41
2022-12-15T05:41:52.707Z,985.37
2022-12-15T05:42:53.719Z,985.34
2022-12-15T05:43:52.729Z,985.40
2022-12-15T05:44:53.711Z,985.35
2022-12-15T05:45:52.742Z,985.41
2022-12-15T05:46:52.702Z,985.45
2022-12-15T05:47:52.660Z,985.45
2022-12-15T05:48:52.663Z,985.45
2022-12-15T05:49:52.654Z,985.49
2022-12-15T05:50:52.686Z,985.47
2022-12-15T05:51:52.691Z,985.51
2022-12-15T05:52:52.643Z,985.53
2022-12-15T05:53:52.626Z,985.53
2022-12-15T05:54:52.663Z,985.52
2022-12-15T05:55:52.630Z,985.52
2022-12-15T05:56:52.598Z,985.54
2022-12-15T05:57:52.625Z,985.50
2022-12-15T05:58:52.602Z,985.54
2022-12-15T05:59:52.629Z,985.54
2022-12-15T06:00:52.624Z,985.54
2022-12-15T06:01:52.642Z,985.51
2022-12-15T06:02:52.648Z,985.51
2022-12-15T06:03:52.562Z,985.48
2022-12-15T06:04:52.657Z,985.53
2022-12-15T06:05:56.408Z,985.48
2022-12-15T06:06:53.560Z,985.50
2022-12-15T06:07:52.586Z,985.53
2022-12-15T06:08:52.567Z,985.54
2022-12-15T06:09:52.554Z,985.53
2022-12-15T06:10:52.594Z,985.55
2022-12-15T06:11:52.541Z,985.57
2022-12-15T06:12:52.532Z,985.57
2022-12-15T06:13:52.508Z,985.61
2022-12-15T06:14:52.512Z,985.65
2022-12-15T06:15:52.545Z,985.68
2022-12-15T06:16:52.555Z,985.67
2022-12-15T06:17:52.515Z,985.67
2022-12-15T06:18:52.502Z,985.66
2022-12-15T06:19:52.477Z,985.70
2022-12-15T06:20:52.466Z,985.74
2022-12-15T06:21:53.524Z,985.63
2022-12-15T06:22:52.434Z,985.67
2022-12-15T06:23:52.488Z,985.65
2022-12-15T06:24:52.449Z,985.71
2022-12-15T06:25:52.453Z,985.73
2022-12-15T06:26:52.432Z,985.70
2022-12-15T06:27:55.789Z,985.76
2022-12-15T06:28:53.431Z,985.74
2022-12-15T06:29:52.426Z,985.73
2022-12-15T06:30:52.457Z,985.78
2022-12-15T06:31:52.471Z,985.69
2022-12-15T06:32:52.448Z,985.72
2022-12-15T06:33:57.529Z,985.70
2022-12-15T06:34:54.377Z,985.70
2022-12-15T06:35:52.382Z,985.67
2022-12-15T06:36:52.449Z,985.65
2022-12-15T06:37:52.413Z,985.64
2022-12-15T06:38:52.353Z,985.67
2022-12-15T06:39:52.416Z,985.65
2022-12-15T06:40:52.343Z,985.70
2022-12-15T06:41:52.325Z,985.67
2022-12-15T06:42:52.339Z,985.76
2022-12-15T06:43:52.322Z,985.72
2022-12-15T06:44:52.512Z,985.86
2022-12-15T06:45:52.321Z,985.85
2022-12-15T06:46:52.371Z,985.87
2022-12-15T06:47:56.520Z,985.82
2022-12-15T06:48:53.346Z,985.85
2022-12-15T06:49:52.344Z,985.83
2022-12-15T06:50:52.299Z,985.82
2022-12-15T06:51:52.284Z,985.82
2022-12-15T06:52:52.249Z,985.80
2022-12-15T06:53:52.268Z,985.75
2022-12-15T06:54:52.299Z,985.83
2022-12-15T06:55:52.269Z,985.81
2022-12-15T06:56:52.436Z,985.82
2022-12-15T06:57:52.232Z,985.79
2022-12-15T06:58:52.235Z,985.82
2022-12-15T06:59:52.285Z,985.77
2022-12-15T07:00:52.345Z,985.84
2022-12-15T07:01:52.375Z,985.82
2022-12-15T07:02:52.347Z,985.83
2022-12-15T07:03:52.503Z,985.81
2022-12-15T07:04:52.200Z,985.88
2022-12-15T07:05:52.227Z,985.88
2022-12-15T07:06:52.211Z,985.95
2022-12-15T07:07:52.182Z,985.89
2022-12-15T07:08:52.162Z,985.96
2022-12-15T07:09:52.173Z,985.97
2022-12-15T07:10:52.174Z,985.96
2022-12-15T07:11:52.183Z,986.05
2022-12-15T07:12:52.150Z,986.02
2022-12-15T07:13:52.188Z,986.02
2022-12-15T07:14:53.697Z,986.05
2022-12-15T07:15:53.158Z,986.05
2022-12-15T07:16:52.140Z,986.09
2022-12-15T07:17:52.128Z,986.11
2022-12-15T07:18:52.117Z,986.09
2022-12-15T07:19:52.117Z,986.07
2022-12-15T07:20:52.092Z,986.08
2022-12-15T07:21:52.185Z,986.09
2022-12-15T07:22:52.180Z,986.16
2022-12-15T07:23:55.421Z,986.10
2022-12-15T07:24:53.077Z,986.14
2022-12-15T07:25:52.055Z,986.17
2022-12-15T07:26:52.188Z,986.16
2022-12-15T07:27:52.087Z,986.20
2022-12-15T07:28:52.050Z,986.17
2022-12-15T07:29:52.043Z,986.15
2022-12-15T07:30:52.123Z,986.20
2022-12-15T07:31:52.128Z,986.16
2022-12-15T07:32:53.137Z,986.23
2022-12-15T07:33:52.124Z,986.17
2022-12-15T07:34:52.012Z,986.14
2022-12-15T07:35:52.037Z,986.20
2022-12-15T07:36:52.847Z,986.19
2022-12-15T07:37:53.007Z,986.26
2022-12-15T07:38:52.172Z,986.19
2022-12-15T07:39:52.013Z,986.31
2022-12-15T07:40:52.127Z,986.30
2022-12-15T07:41:51.990Z,986.38
2022-12-15T07:42:51.977Z,986.34
2022-12-15T07:43:51.954Z,986.34
2022-12-15T07:44:51.985Z,986.35
2022-12-15T07:45:52.076Z,986.35
2022-12-15T07:46:51.969Z,986.33
2022-12-15T07:47:51.950Z,986.32
2022-12-15T07:48:51.923Z,986.35
2022-12-15T07:49:51.923Z,986.35
2022-12-15T07:50:51.933Z,986.30
2022-12-15T07:51:51.923Z,986.37
2022-12-15T07:52:51.904Z,986.32
2022-12-15T07:53:51.890Z,986.36
2022-12-15T07:54:51.869Z,986.38
2022-12-15T07:56:07.066Z,986.41
2022-12-15T07:56:53.894Z,986.42
2022-12-15T07:57:51.878Z,986.42
2022-12-15T07:58:51.880Z,986.42
2022-12-15T07:59:51.849Z,986.45
2022-12-15T08:00:51.876Z,986.48
2022-12-15T08:01:52.079Z,986.42
2022-12-15T08:02:52.002Z,986.43
2022-12-15T08:03:51.940Z,986.39
2022-12-15T08:04:52.806Z,986.44
2022-12-15T08:05:51.901Z,986.44
2022-12-15T08:06:51.840Z,986.44
2022-12-15T08:07:51.826Z,986.46
2022-12-15T08:08:51.784Z,986.48
2022-12-15T08:09:51.772Z,986.48
2022-12-15T08:10:51.819Z,986.47
2022-12-15T08:11:51.806Z,986.46
2022-12-15T08:12:51.799Z,986.50
2022-12-15T08:14:11.973Z,986.49
2022-12-15T08:14:53.762Z,986.52
2022-12-15T08:15:51.742Z,986.52
2022-12-15T08:16:51.800Z,986.50
2022-12-15T08:17:51.780Z,986.55
2022-12-15T08:18:51.726Z,986.47
2022-12-15T08:19:55.688Z,986.61
2022-12-15T08:20:52.715Z,986.53
2022-12-15T08:21:51.719Z,986.50
2022-12-15T08:22:51.688Z,986.51
2022-12-15T08:23:51.684Z,986.59
2022-12-15T08:24:51.682Z,986.62
2022-12-15T08:25:51.677Z,986.59
2022-12-15T08:26:51.687Z,986.61
2022-12-15T08:27:51.694Z,986.65
2022-12-15T08:28:51.692Z,986.61
2022-12-15T08:29:52.564Z,986.62
2022-12-15T08:30:52.647Z,986.64
2022-12-15T08:31:51.779Z,986.63
2022-12-15T08:32:52.231Z,986.66
2022-12-15T08:33:52.614Z,986.63
2022-12-15T08:34:51.666Z,986.62
2022-12-15T08:35:57.220Z,986.62
2022-12-15T08:36:53.653Z,986.60
2022-12-15T08:37:51.649Z,986.65
2022-12-15T08:38:51.593Z,986.63
2022-12-15T08:39:51.628Z,986.69
2022-12-15T08:40:51.579Z,986.65
2022-12-15T08:41:52.612Z,986.69
2022-12-15T08:42:51.623Z,986.69
2022-12-15T08:43:51.567Z,986.67
2022-12-15T08:44:51.587Z,986.74
2022-12-15T08:45:51.712Z,986.76
2022-12-15T08:46:51.574Z,986.74
2022-12-15T08:47:51.571Z,986.81
2022-12-15T08:48:51.550Z,986.77
2022-12-15T08:49:51.583Z,986.87
2022-12-15T08:50:51.522Z,986.80
2022-12-15T08:51:51.562Z,986.84
2022-12-15T08:53:21.344Z,986.80
2022-12-15T08:53:53.518Z,986.84
2022-12-15T08:54:51.548Z,986.83
2022-12-15T08:55:51.508Z,986.88
2022-12-15T08:56:51.485Z,986.81
2022-12-15T08:57:51.494Z,986.88
2022-12-15T08:58:51.474Z,986.86
2022-12-15T08:59:51.574Z,986.91
2022-12-15T09:00:51.508Z,986.93
2022-12-15T09:01:51.718Z,986.92
2022-12-15T09:02:51.518Z,986.89
2022-12-15T09:03:51.570Z,986.90
2022-12-15T09:04:51.526Z,986.83
2022-12-15T09:05:51.416Z,986.89
2022-12-15T09:06:51.447Z,986.87
2022-12-15T09:07:51.430Z,986.91
2022-12-15T09:08:51.513Z,986.92
2022-12-15T09:09:51.462Z,987.00
2022-12-15T09:10:52.487Z,987.08
2022-12-15T09:11:51.389Z,986.97
2022-12-15T09:12:51.469Z,987.11
2022-12-15T09:13:51.415Z,987.10
2022-12-15T09:14:51.372Z,987.06
2022-12-15T09:16:53.446Z,987.12
2022-12-15T09:17:51.373Z,987.11
2022-12-15T09:18:51.362Z,987.12
2022-12-15T09:19:51.365Z,987.15
2022-12-15T09:20:51.395Z,987.15
2022-12-15T09:21:51.376Z,987.15
2022-12-15T09:22:51.359Z,987.20
2022-12-15T09:23:51.327Z,987.19
2022-12-15T09:24:51.341Z,987.21
2022-12-15T09:25:51.310Z,987.16
2022-12-15T09:26:51.446Z,987.19
2022-12-15T09:27:51.319Z,987.21
2022-12-15T09:28:51.395Z,987.25
2022-12-15T09:29:51.295Z,987.22
2022-12-15T09:30:51.298Z,987.25
2022-12-15T09:31:51.279Z,987.13
2022-12-15T09:32:51.317Z,987.21
2022-12-15T09:33:51.290Z,987.20
2022-12-15T09:34:51.593Z,987.20
2022-12-15T09:35:51.260Z,987.15
2022-12-15T09:36:51.280Z,987.13
2022-12-15T09:37:51.954Z,987.12
2022-12-15T09:38:52.227Z,987.09
2022-12-15T09:39:51.244Z,987.08
2022-12-15T09:40:51.258Z,987.12
2022-12-15T09:41:51.242Z,987.10
2022-12-15T09:43:05.045Z,987.12
2022-12-15T09:43:53.643Z,987.13
2022-12-15T09:44:51.244Z,987.13
2022-12-15T09:45:51.261Z,987.15
2022-12-15T09:46:51.233Z,987.22
2022-12-15T09:47:51.209Z,987.14
2022-12-15T09:48:51.258Z,987.17
2022-12-15T09:49:51.190Z,987.17
2022-12-15T09:50:51.221Z,987.21
2022-12-15T09:51:51.177Z,987.21
2022-12-15T09:52:51.213Z,987.23
2022-12-15T09:53:55.935Z,987.16
2022-12-15T09:54:53.266Z,987.21
2022-12-15T09:55:51.189Z,987.18
2022-12-15T09:56:51.170Z,987.18
2022-12-15T09:57:51.211Z,987.15
2022-12-15T09:58:51.152Z,987.19
2022-12-15T09:59:51.305Z,987.22
2022-12-15T10:00:52.645Z,987.21
2022-12-15T10:01:52.156Z,987.31
2022-12-15T10:02:51.174Z,987.31
2022-12-15T10:03:51.169Z,987.34
2022-12-15T10:04:51.084Z,987.31
2022-12-15T10:06:14.729Z,987.40
2022-12-15T10:06:53.085Z,987.33
2022-12-15T10:07:51.108Z,987.33
2022-12-15T10:08:51.061Z,987.32
2022-12-15T10:09:51.109Z,987.31
2022-12-15T10:10:51.091Z,987.24
2022-12-15T10:11:51.202Z,987.23
2022-12-15T10:13:53.036Z,987.21
2022-12-15T10:14:51.037Z,987.20
2022-12-15T10:15:51.062Z,987.26
2022-12-15T10:16:51.049Z,987.27
2022-12-15T10:17:51.020Z,987.34
2022-12-15T10:18:53.622Z,987.35
2022-12-15T10:19:52.113Z,987.38
2022-12-15T10:20:50.998Z,987.49
2022-12-15T10:21:51.029Z,987.44
2022-12-15T10:22:51.017Z,987.45
2022-12-15T10:23:51.042Z,987.45
2022-12-15T10:25:52.956Z,987.35
2022-12-15T10:26:50.982Z,987.30
2022-12-15T10:27:50.948Z,987.30
2022-12-15T10:28:51.320Z,987.30
2022-12-15T10:29:51.237Z,987.33
2022-12-15T10:30:50.999Z,987.31
2022-12-15T10:31:50.943Z,987.39
2022-12-15T10:32:51.292Z,987.34
2022-12-15T10:33:51.922Z,987.37
2022-12-15T10:34:50.948Z,987.39
2022-12-15T10:35:50.923Z,987.38
2022-12-15T10:36:50.896Z,987.46
2022-12-15T10:37:50.963Z,987.44
2022-12-15T10:38:50.951Z,987.43
2022-12-15T10:39:50.884Z,987.45
2022-12-15T10:40:51.165Z,987.41
2022-12-15T10:41:50.963Z,987.39
2022-12-15T10:42:50.918Z,987.37
2022-12-15T10:43:50.891Z,987.37
2022-12-15T10:44:51.847Z,987.30
2022-12-15T10:45:50.934Z,987.32
2022-12-15T10:46:50.927Z,987.25
2022-12-15T10:47:50.839Z,987.32
2022-12-15T10:48:51.589Z,987.28
2022-12-15T10:49:50.865Z,987.27
2022-12-15T10:50:50.833Z,987.26
2022-12-15T10:51:50.812Z,987.28
2022-12-15T10:52:50.816Z,987.29
2022-12-15T10:53:50.996Z,987.27
2022-12-15T10:54:50.827Z,987.29
2022-12-15T10:55:50.786Z,987.25
2022-12-15T10:56:50.778Z,987.32
2022-12-15T10:57:50.795Z,987.28
2022-12-15T10:58:50.774Z,987.27
2022-12-15T10:59:50.795Z,987.30
2022-12-15T11:00:51.159Z,987.28
2022-12-15T11:01:51.097Z,987.33
2022-12-15T11:02:50.852Z,987.33
2022-12-15T11:03:50.934Z,987.36
2022-12-15T11:04:50.765Z,987.35
2022-12-15T11:05:50.724Z,987.39
2022-12-15T11:06:50.722Z,987.31
2022-12-15T11:07:50.810Z,987.30
2022-12-15T11:08:50.831Z,987.28
2022-12-15T11:09:50.990Z,987.25
2022-12-15T11:10:50.701Z,987.26
2022-12-15T11:11:50.732Z,987.25
2022-12-15T11:12:50.830Z,987.27
2022-12-15T11:13:50.791Z,987.26
2022-12-15T11:14:51.224Z,987.34
2022-12-15T11:15:51.121Z,987.31
2022-12-15T11:16:50.673Z,987.33
2022-12-15T11:17:50.686Z,987.37
2022-12-15T11:18:50.659Z,987.33
2022-12-15T11:19:52.222Z,987.33
2022-12-15T11:20:50.668Z,987.34
2022-12-15T11:21:50.670Z,987.35
2022-12-15T11:22:50.625Z,987.34
2022-12-15T11:23:50.644Z,987.39
2022-12-15T11:24:50.629Z,987.38
2022-12-15T11:25:50.620Z,987.37
2022-12-15T11:26:50.647Z,987.36
2022-12-15T11:27:50.628Z,987.35
2022-12-15T11:28:50.591Z,987.34
2022-12-15T11:29:50.579Z,987.30
2022-12-15T11:30:50.600Z,987.27
2022-12-15T11:31:50.592Z,987.31
2022-12-15T11:32:50.606Z,987.28
2022-12-15T11:33:50.587Z,987.26
2022-12-15T11:34:50.570Z,987.25
2022-12-15T11:35:50.609Z,987.23
2022-12-15T11:36:50.593Z,987.20
2022-12-15T11:37:50.610Z,987.21
2022-12-15T11:38:50.895Z,987.21
2022-12-15T11:39:50.537Z,987.20
2022-12-15T11:40:50.671Z,987.26
2022-12-15T11:41:50.563Z,987.20
2022-12-15T11:42:50.534Z,987.24
2022-12-15T11:43:50.618Z,987.26
2022-12-15T11:44:50.514Z,987.28
2022-12-15T11:45:50.514Z,987.21
2022-12-15T11:46:50.533Z,987.30
2022-12-15T11:47:50.969Z,987.23
2022-12-15T11:48:50.720Z,987.22
2022-12-15T11:49:50.530Z,987.27
2022-12-15T11:50:51.073Z,987.26
2022-12-15T11:51:50.470Z,987.25
2022-12-15T11:52:50.487Z,987.32
2022-12-15T11:53:50.510Z,987.26
2022-12-15T11:54:50.456Z,987.29
2022-12-15T11:55:50.441Z,987.27
2022-12-15T11:56:50.426Z,987.26
2022-12-15T11:57:50.593Z,987.24
2022-12-15T11:58:50.479Z,987.30
2022-12-15T11:59:50.441Z,987.30
2022-12-15T12:00:50.459Z,987.29
2022-12-15T12:01:57.114Z,987.32
2022-12-15T12:02:52.443Z,987.33
2022-12-15T12:03:50.399Z,987.26
2022-12-15T12:04:50.853Z,987.23
2022-12-15T12:05:50.424Z,987.23
2022-12-15T12:06:50.477Z,987.23
2022-12-15T12:07:50.388Z,987.18
2022-12-15T12:08:51.187Z,987.16
2022-12-15T12:09:50.361Z,987.05
2022-12-15T12:10:50.457Z,987.08
2022-12-15T12:11:50.449Z,987.02
2022-12-15T12:12:50.638Z,986.97
2022-12-15T12:13:50.448Z,986.96
2022-12-15T12:14:50.778Z,986.92
2022-12-15T12:15:50.366Z,986.92
2022-12-15T12:16:50.384Z,986.91
2022-12-15T12:17:50.326Z,986.91
2022-12-15T12:18:50.369Z,986.89
2022-12-15T12:19:50.797Z,986.90
2022-12-15T12:20:50.403Z,986.84
2022-12-15T12:21:50.974Z,986.83
2022-12-15T12:22:50.651Z,986.81
2022-12-15T12:23:50.338Z,986.81
2022-12-15T12:25:51.283Z,986.83
2022-12-15T12:26:50.382Z,986.86
2022-12-15T12:27:50.530Z,986.79
2022-12-15T12:28:50.452Z,986.77
2022-12-15T12:29:50.256Z,986.80
2022-12-15T12:30:50.610Z,986.76
2022-12-15T12:31:50.738Z,986.73
2022-12-15T12:32:50.515Z,986.78